createdAt,value
2022-12-01T01:07:05.640Z,42.37
2022-12-01T01:50:30.995Z,46.23
2022-12-01T01:53:19.980Z,45.57
2022-12-01T01:56:12.411Z,46.07
2022-12-01T01:59:02.453Z,44.80
2022-12-01T02:02:03.991Z,50.30
2022-12-01T02:05:00.594Z,46.67
2022-12-01T02:11:19.300Z,48.10
2022-12-01T02:14:17.584Z,49.90
2022-12-01T02:17:21.112Z,48.30
2022-12-01T02:20:35.551Z,47.87
2022-12-01T02:23:59.204Z,46.77
2022-12-01T02:26:53.170Z,48.00
2022-12-01T02:30:09.147Z,46.20
2022-12-01T02:33:07.448Z,47.53
2022-12-01T02:36:02.912Z,45.50
2022-12-01T02:38:58.186Z,42.93
2022-12-01T02:41:51.943Z,45.53
2022-12-01T02:44:44.421Z,45.50
2022-12-01T02:47:34.673Z,46.63
2022-12-01T02:50:28.257Z,46.70
2022-12-01T02:53:21.139Z,50.33
2022-12-01T02:56:13.128Z,50.20
2022-12-01T02:59:01.441Z,47.43
2022-12-01T03:02:02.050Z,46.93
2022-12-01T03:05:02.208Z,48.20
2022-12-01T03:08:01.968Z,48.23
2022-12-01T03:11:03.663Z,45.33
2022-12-01T03:17:00.310Z,46.53
2022-12-01T03:19:56.272Z,49.50
2022-12-01T03:22:55.845Z,48.57
2022-12-01T03:25:53.230Z,48.27
2022-12-01T03:28:47.946Z,49.00
2022-12-01T03:31:46.010Z,50.53
2022-12-01T03:34:44.616Z,50.67
2022-12-01T03:37:41.083Z,49.03
2022-12-01T03:40:41.895Z,48.47
2022-12-01T03:43:45.182Z,51.97
2022-12-01T03:46:45.756Z,48.93
2022-12-01T03:49:37.305Z,50.10
2022-12-01T03:52:40.662Z,46.20
2022-12-01T04:14:00.493Z,56.17
2022-12-01T04:33:45.384Z,51.37
2022-12-01T04:36:36.962Z,50.57
2022-12-01T04:39:26.389Z,55.20
2022-12-01T04:42:15.291Z,52.50
2022-12-01T04:45:04.684Z,54.43
2022-12-01T04:47:55.345Z,53.10
2022-12-01T04:50:51.493Z,55.03
2022-12-01T04:53:44.402Z,47.47
2022-12-01T04:56:35.250Z,49.40
2022-12-01T04:59:24.254Z,49.00
2022-12-01T05:02:15.819Z,49.00
2022-12-01T05:05:20.231Z,52.03
2022-12-01T05:08:29.263Z,52.43
2022-12-01T05:11:37.681Z,54.33
2022-12-01T05:14:50.590Z,50.73
2022-12-01T05:17:52.717Z,51.03
2022-12-01T05:21:06.637Z,54.37
2022-12-01T05:24:19.130Z,55.50
2022-12-01T05:27:22.389Z,51.67
2022-12-01T05:30:38.734Z,50.10
2022-12-01T05:33:35.178Z,45.77
2022-12-01T05:36:33.134Z,50.77
2022-12-01T05:39:31.983Z,50.00
2022-12-01T05:42:33.832Z,50.70
2022-12-01T05:45:38.717Z,52.40
2022-12-01T05:48:32.084Z,54.53
2022-12-01T05:51:34.708Z,53.53
2022-12-01T05:54:39.801Z,50.07
2022-12-01T05:57:34.323Z,51.87
2022-12-01T06:00:25.409Z,58.67
2022-12-01T06:03:13.721Z,56.67
2022-12-01T06:06:02.104Z,53.67
2022-12-01T06:08:50.644Z,52.90
2022-12-01T06:11:40.827Z,52.80
2022-12-01T06:14:44.792Z,52.97
2022-12-01T06:17:40.179Z,52.77
2022-12-01T06:20:33.467Z,54.67
2022-12-01T06:23:24.301Z,53.83
2022-12-01T06:26:17.427Z,52.60
2022-12-01T06:29:07.109Z,52.20
2022-12-01T06:31:57.589Z,52.60
2022-12-01T06:34:46.043Z,53.77
2022-12-01T06:37:37.691Z,52.83
2022-12-01T06:40:27.152Z,55.30
2022-12-01T06:43:15.312Z,50.20
2022-12-01T06:46:06.532Z,52.40
2022-12-01T06:48:55.001Z,53.57
2022-12-01T06:54:56.282Z,54.67
2022-12-01T06:57:44.889Z,53.60
2022-12-01T07:00:35.436Z,54.20
2022-12-01T07:03:25.321Z,56.90
2022-12-01T07:06:13.587Z,54.50
2022-12-01T07:09:02.980Z,55.87
2022-12-01T07:11:51.249Z,54.70
2022-12-01T07:14:40.005Z,56.40
2022-12-01T07:17:30.724Z,60.87
2022-12-01T07:20:20.376Z,56.83
2022-12-01T07:23:08.792Z,60.23
2022-12-01T07:26:01.365Z,56.37
2022-12-01T07:28:49.951Z,59.30
2022-12-01T07:31:39.563Z,60.83
2022-12-01T07:34:27.879Z,62.80
2022-12-01T07:37:19.978Z,64.47
2022-12-01T07:40:10.359Z,61.10
2022-12-01T07:42:58.797Z,66.10
2022-12-01T07:45:52.535Z,63.77
2022-12-01T07:48:41.969Z,64.50
2022-12-01T07:51:33.079Z,65.60
2022-12-01T07:54:23.281Z,64.27
2022-12-01T07:57:14.414Z,65.27
2022-12-01T08:00:04.002Z,62.70
2022-12-01T08:02:52.440Z,64.53
2022-12-01T08:05:40.750Z,66.87
2022-12-01T08:08:29.331Z,64.90
2022-12-01T08:11:21.044Z,74.63
2022-12-01T08:14:14.750Z,72.70
2022-12-01T08:17:12.617Z,71.03
2022-12-01T08:20:00.866Z,69.17
2022-12-01T08:41:23.562Z,66.27
2022-12-01T08:44:16.587Z,63.90
2022-12-01T08:47:18.874Z,62.87
2022-12-01T08:50:11.143Z,63.80
2022-12-01T08:52:59.832Z,58.43
2022-12-01T08:55:49.290Z,64.30
2022-12-01T08:58:43.088Z,64.77
2022-12-01T09:01:34.785Z,70.17
2022-12-01T09:04:30.516Z,67.80
2022-12-01T09:07:24.659Z,72.13
2022-12-01T09:10:15.173Z,69.10
2022-12-01T09:13:04.599Z,70.27
2022-12-01T09:16:00.439Z,73.90
2022-12-01T09:18:49.535Z,68.83
2022-12-01T09:21:39.439Z,70.07
2022-12-01T09:24:31.096Z,71.67
2022-12-01T09:27:20.435Z,67.70
2022-12-01T09:30:11.107Z,72.40
2022-12-01T09:33:06.685Z,72.33
2022-12-01T09:36:01.883Z,71.33
2022-12-01T09:38:50.866Z,66.90
2022-12-01T09:41:44.450Z,72.10
2022-12-01T09:44:42.176Z,69.60
2022-12-01T09:47:38.089Z,72.90
2022-12-01T09:50:30.355Z,64.80
2022-12-01T09:53:23.778Z,67.80
2022-12-01T09:56:22.112Z,69.20
2022-12-01T09:59:20.914Z,66.97
2022-12-01T10:02:26.897Z,60.10
2022-12-01T10:05:19.972Z,60.03
2022-12-01T10:08:16.094Z,58.07
2022-12-01T12:25:20.916Z,47.70
2022-12-01T14:20:49.929Z,43.00
2022-12-01T14:57:44.699Z,43.97
2022-12-01T15:00:36.813Z,45.77
2022-12-01T15:03:31.730Z,43.27
2022-12-01T15:06:22.344Z,42.80
2022-12-01T15:12:27.962Z,43.17
2022-12-01T15:15:24.178Z,42.97
2022-12-01T15:18:23.588Z,42.83
2022-12-01T15:21:14.974Z,43.03
2022-12-01T15:24:14.460Z,43.70
2022-12-01T15:27:04.196Z,41.33
2022-12-01T15:29:53.737Z,44.40
2022-12-01T15:32:45.931Z,46.17
2022-12-01T15:35:35.260Z,39.27
2022-12-01T15:38:27.339Z,43.10
2022-12-01T15:41:29.634Z,41.20
2022-12-01T15:44:21.970Z,43.80
2022-12-01T15:47:36.021Z,39.77
2022-12-01T15:50:31.296Z,41.20
2022-12-01T15:53:25.983Z,43.07
2022-12-01T15:56:14.773Z,44.00
2022-12-01T15:59:09.969Z,43.77
2022-12-01T16:01:58.651Z,41.73
2022-12-01T16:04:48.338Z,42.23
2022-12-01T16:32:25.048Z,47.00
2022-12-01T16:35:27.814Z,48.70
2022-12-01T16:38:20.933Z,46.27
2022-12-01T16:41:19.192Z,43.73
2022-12-01T16:47:23.070Z,42.40
2022-12-01T16:50:19.279Z,46.30
2022-12-01T16:53:14.276Z,43.80
2022-12-01T16:56:05.841Z,43.23
2022-12-01T16:58:55.358Z,43.33
2022-12-01T17:01:50.756Z,48.10
2022-12-01T17:04:41.612Z,45.90
2022-12-01T17:07:31.738Z,46.37
2022-12-01T17:10:22.365Z,48.47
2022-12-01T17:13:38.791Z,47.60
2022-12-01T17:16:29.991Z,42.03
2022-12-01T17:19:20.198Z,43.80
2022-12-01T17:22:15.133Z,47.23
2022-12-01T17:25:05.144Z,46.00
2022-12-01T17:27:54.152Z,45.47
2022-12-01T18:14:47.151Z,43.03
2022-12-01T22:12:23.878Z,44.60
2022-12-01T22:15:37.475Z,41.30
2022-12-01T22:18:29.024Z,41.50
2022-12-01T22:21:38.233Z,40.73
2022-12-01T22:24:30.738Z,37.17
2022-12-01T22:27:29.033Z,40.07
2022-12-01T22:30:22.489Z,40.70
2022-12-01T22:33:18.280Z,41.10
2022-12-01T22:36:21.195Z,42.97
2022-12-01T23:10:26.976Z,37.90
2022-12-01T23:13:19.940Z,41.43
2022-12-01T23:16:12.209Z,38.53
2022-12-01T23:19:01.111Z,39.83
2022-12-01T23:21:51.915Z,39.70
2022-12-01T23:24:41.106Z,39.70
2022-12-01T23:27:32.340Z,38.03
2022-12-01T23:30:22.507Z,39.13
2022-12-01T23:33:16.747Z,38.77
2022-12-01T23:36:12.042Z,39.33
2022-12-01T23:39:06.005Z,43.37
2022-12-01T23:41:54.562Z,38.07
2022-12-01T23:44:45.858Z,38.83
2022-12-01T23:47:34.218Z,37.30
2022-12-01T23:50:26.006Z,37.40
2022-12-01T23:53:27.807Z,39.17
2022-12-01T23:56:21.784Z,35.83
2022-12-01T23:59:13.841Z,39.93
